Toryo Maru — JGPC — position and weather

sailwx.info

Track history (hours):
 
Tides and Currents Weather Stations Pressure Air Temp Water Temp Dewpoint Dewpoint Depression Visibility Wind Speed Wind Dir Waves Ship Positions

Toryo Maru

Last reported at 2018-Feb-21 11:34 UTC. Time now 2018-Feb-21 19:21 UTC.
Position N 34°25' E 134°23'.

Length 69 m; draft 5 m.

Type: Tanker. MMSI: 431697000.

Date/timePositionNaut miles runAvg speedWind from/ knotsBaromVisibWave heightAir tempDewpointWater temp
2018-Feb-21 11:34N 34°25' E 134°23'312.3
2018-Feb-21 11:18N 34°27' E 134°27'412.4
2018-Feb-21 11:00N 34°28' E 134°31'612.2
2018-Feb-21 10:30N 34°30' E 134°38'611.9
2018-Feb-21 10:00N 34°32' E 134°44'611.2
2018-Feb-21 09:31N 34°34' E 134°51'5 9.8
2018-Feb-21 09:01N 34°36' E 134°56'4 8.8
2018-Feb-21 08:31N 34°37' E 135°01'4 8.4
2018-Feb-21 08:01N 34°34' E 135°05'611.1
2018-Feb-21 07:30N 34°29' E 135°04'611.4
2018-Feb-21 07:00N 34°23' E 135°02'611.2
2018-Feb-21 06:31N 34°18' E 134°60'510.3
2018-Feb-21 06:00N 34°13' E 135°01'510.5
2018-Feb-21 05:30N 34°09' E 135°05'3 0.5
2018-Feb-20 23:55N 34°07' E 135°07'1 3.5
2018-Feb-20 23:30N 34°08' E 135°07'2 3.4
2018-Feb-20 22:59N 34°10' E 135°09'0 0.1
2018-Feb-20 22:29N 34°10' E 135°09'0 0.0
2018-Feb-20 21:59N 34°10' E 135°09'0 0.0
2018-Feb-20 21:29N 34°10' E 135°09'0 0.0
2018-Feb-20 20:56N 34°10' E 135°09'0 0.0
2018-Feb-20 20:29N 34°10' E 135°09'0 0.0
2018-Feb-20 19:59N 34°10' E 135°09'0 0.0
2018-Feb-20 19:29N 34°10' E 135°09'0 0.0
2018-Feb-20 18:59N 34°10' E 135°09'0 0.0
2018-Feb-20 18:29N 34°10' E 135°09'0 0.0
2018-Feb-20 17:56N 34°10' E 135°09'0 0.0
2018-Feb-20 17:29N 34°10' E 135°09'0 0.0
2018-Feb-20 16:59N 34°10' E 135°09'0 0.0
2018-Feb-20 16:29N 34°10' E 135°09'0 0.0
2018-Feb-20 15:59N 34°10' E 135°09'0 0.0
2018-Feb-20 15:29N 34°10' E 135°09'0 0.0
2018-Feb-20 14:59N 34°10' E 135°09'0 0.0
2018-Feb-20 14:29N 34°10' E 135°09'0 0.0
2018-Feb-20 13:59N 34°10' E 135°09'0 0.0
2018-Feb-20 13:29N 34°10' E 135°09'0 0.0
2018-Feb-20 12:59N 34°10' E 135°09'0 0.0
2018-Feb-20 12:29N 34°10' E 135°09'0 0.0
2018-Feb-20 11:59N 34°10' E 135°09'0 0.0
2018-Feb-20 11:29N 34°10' E 135°09'0 0.1
2018-Feb-20 10:59N 34°10' E 135°09'0 0.1
2018-Feb-20 10:29N 34°10' E 135°09'0 0.1
2018-Feb-20 09:59N 34°10' E 135°09'0 0.0
2018-Feb-20 09:29N 34°10' E 135°09'0 0.0
2018-Feb-20 08:59N 34°10' E 135°09'0 0.0
2018-Feb-20 08:29N 34°10' E 135°09'0 0.0
2018-Feb-20 07:59N 34°10' E 135°09'0 0.0
2018-Feb-20 07:29N 34°10' E 135°09'1 2.5
2018-Feb-20 07:00N 34°09' E 135°07'612.4
2018-Feb-20 06:30N 34°09' E 134°60'612.2
2018-Feb-20 06:00N 34°08' E 134°53'612.2
2018-Feb-20 05:30N 34°09' E 134°45'713.6
2018-Feb-20 05:00N 34°14' E 134°39'713.1
2018-Feb-20 04:30N 34°17' E 134°33'612.7
2018-Feb-20 04:01N 34°20' E 134°25'912.5
2018-Feb-20 03:17N 34°23' E 134°15'311.9
2018-Feb-20 03:00N 34°24' E 134°12'  
2018-Feb-16 00:30N 34°25' E 134°13'713.6
2018-Feb-16 00:00N 34°23' E 134°21'713.0
2018-Feb-15 23:29N 34°19' E 134°28'613.5
2018-Feb-15 23:00N 34°17' E 134°36'713.9
2018-Feb-15 22:29N 34°12' E 134°41'613.3
2018-Feb-15 22:00N 34°07' E 134°46'712.8
2018-Feb-15 21:30N 34°01' E 134°51'612.9
2018-Feb-15 21:00N 33°56' E 134°55'613.0
2018-Feb-15 20:30N 33°51' E 135°00'105 8.9
2018-Feb-15 08:42N 34°37' E 136°54'212.5
2018-Feb-15 08:30N 34°39' E 136°52'712.4
2018-Feb-15 07:55N 34°45' E 136°47'512.4
2018-Feb-15 07:30N 34°50' E 136°46'612.5
2018-Feb-15 07:01N 34°56' E 136°46'612.3
2018-Feb-15 06:30N 35°01' E 136°50'2 4.2
2018-Feb-15 05:58N 35°03' E 136°52'0 0.0
2018-Feb-15 05:28N 35°03' E 136°52'0 0.0
2018-Feb-15 04:58N 35°03' E 136°52'1 3.1
2018-Feb-15 04:30N 35°02' E 136°51'510.1
2018-Feb-15 04:00N 34°59' E 136°46'4 8.9
2018-Feb-15 03:30N 34°58' E 136°41'2 3.1
2018-Feb-15 02:56N 34°58' E 136°39'0 0.1
2018-Feb-15 02:20N 34°58' E 136°39'0 0.0
2018-Feb-15 01:56N 34°58' E 136°39'0 0.1
2018-Feb-15 01:20N 34°58' E 136°39'0 0.0
2018-Feb-15 00:56N 34°58' E 136°39'0 0.0
2018-Feb-15 00:26N 34°58' E 136°39'0 0.1
2018-Feb-14 23:56N 34°58' E 136°39'0 0.1
2018-Feb-14 23:26N 34°58' E 136°39'0 0.1
2018-Feb-14 22:59N 34°58' E 136°39'2 4.0
2018-Feb-14 22:30N 34°58' E 136°41'0 0.0
2018-Feb-14 21:59N 34°58' E 136°41'0 0.1
2018-Feb-14 21:30N 34°58' E 136°41'5 9.3
2018-Feb-14 21:00N 34°59' E 136°47'510.8
2018-Feb-14 20:30N 35°03' E 136°51'3 5.3
2018-Feb-14 20:00N 35°05' E 136°52'0 0.0
2018-Feb-14 19:30N 35°05' E 136°52'0 0.0
2018-Feb-14 19:01N 35°05' E 136°52'0 0.0
2018-Feb-14 18:31N 35°05' E 136°52'0 0.0
2018-Feb-14 18:01N 35°05' E 136°52'0 0.0
2018-Feb-14 17:25N 35°05' E 136°52'0 0.0
2018-Feb-14 16:58N 35°05' E 136°52'0 0.0
2018-Feb-14 16:28N 35°05' E 136°52'0 0.0
2018-Feb-14 16:01N 35°05' E 136°52'0 0.0
2018-Feb-14 15:30N 35°05' E 136°52'0 0.0
2018-Feb-14 15:00N 35°05' E 136°52'0 0.0
2018-Feb-14 14:31N 35°05' E 136°52'0 0.0
2018-Feb-14 14:00N 35°05' E 136°52'0 0.0
2018-Feb-14 13:30N 35°05' E 136°52'0 0.0
2018-Feb-14 13:01N 35°05' E 136°52'0 0.0
2018-Feb-14 12:30N 35°05' E 136°52'0 0.0
2018-Feb-14 12:01N 35°05' E 136°52'0 0.0
2018-Feb-14 11:31N 35°05' E 136°52'0 0.0
2018-Feb-14 11:01N 35°05' E 136°52'0 0.0
2018-Feb-14 10:30N 35°05' E 136°52'0 0.0
2018-Feb-14 10:00N 35°05' E 136°52'0 0.0
2018-Feb-14 09:30N 35°05' E 136°52'0 0.0
2018-Feb-14 08:57N 35°05' E 136°52'0 0.0
2018-Feb-14 08:31N 35°05' E 136°52'0 0.0
2018-Feb-14 08:00N 35°05' E 136°52'0 0.0
2018-Feb-14 07:31N 35°05' E 136°52'0 0.0
2018-Feb-14 07:00N 35°05' E 136°52'0 0.0
2018-Feb-14 06:30N 35°05' E 136°52'0 0.0
2018-Feb-14 06:00N 35°05' E 136°52'0 0.0
2018-Feb-14 05:31N 35°05' E 136°52'0 0.0
2018-Feb-14 05:00N 35°05' E 136°52'1 1.7
2018-Feb-14 04:31N 35°05' E 136°53'0 0.2
2018-Feb-14 03:53N 35°05' E 136°53'0 0.0
2018-Feb-14 03:17N 35°05' E 136°53'0 0.0
2018-Feb-14 02:59N 35°05' E 136°53'0 0.0
2018-Feb-14 02:23N 35°05' E 136°53'0 0.0
2018-Feb-14 01:59N 35°05' E 136°53'0 0.0
2018-Feb-14 01:29N 35°05' E 136°53'0 0.0
2018-Feb-14 00:53N 35°05' E 136°53'0 0.0
2018-Feb-14 00:29N 35°05' E 136°53'0 0.0
2018-Feb-13 23:59N 35°05' E 136°53'0 0.0
2018-Feb-13 23:29N 35°05' E 136°53'0 0.0
2018-Feb-13 23:00N 35°05' E 136°53'3 5.3
2018-Feb-13 22:30N 35°03' E 136°51'510.6
2018-Feb-13 22:00N 34°58' E 136°48'3 5.2
2018-Feb-13 21:30N 34°58' E 136°45'0 0.0
2018-Feb-13 20:58N 34°58' E 136°45'0 0.0
2018-Feb-13 20:28N 34°58' E 136°45'0 0.0
2018-Feb-13 19:58N 34°58' E 136°45'0 0.0
2018-Feb-13 19:28N 34°58' E 136°45'0 0.0
2018-Feb-13 18:58N 34°58' E 136°45'0 0.0
2018-Feb-13 18:28N 34°58' E 136°45'0 0.0
2018-Feb-13 17:58N 34°58' E 136°45'0 0.0
2018-Feb-13 17:28N 34°58' E 136°45'0 0.1
2018-Feb-13 16:58N 34°58' E 136°45'0 0.1
2018-Feb-13 16:25N 34°58' E 136°45'0 0.1
2018-Feb-13 15:58N 34°58' E 136°45'0 0.1
2018-Feb-13 15:25N 34°58' E 136°45'0 0.0
2018-Feb-13 14:58N 34°58' E 136°45'0 0.0
2018-Feb-13 14:28N 34°58' E 136°45'0 0.0
2018-Feb-13 13:58N 34°58' E 136°45'0 0.1
2018-Feb-13 13:28N 34°58' E 136°45'0 0.0
2018-Feb-13 12:58N 34°58' E 136°45'0 0.0
2018-Feb-13 12:28N 34°58' E 136°45'0 0.0
2018-Feb-13 11:58N 34°58' E 136°45'0 0.0
2018-Feb-13 11:28N 34°58' E 136°45'0 0.0
2018-Feb-13 10:58N 34°58' E 136°45'0 0.1
2018-Feb-13 10:28N 34°58' E 136°45'0 0.1
2018-Feb-13 09:58N 34°58' E 136°45'0 0.0
2018-Feb-13 09:28N 34°58' E 136°45'0 0.0
2018-Feb-13 08:58N 34°58' E 136°45'2 3.8
2018-Feb-13 08:30N 34°58' E 136°43'3 6.2
2018-Feb-13 08:00N 34°58' E 136°39'0 0.0
2018-Feb-13 04:48N 34°58' E 136°39'0 0.0
2018-Feb-13 04:24N 34°58' E 136°39'0 0.1
2018-Feb-13 04:00N 34°58' E 136°39'0 0.0
2018-Feb-13 03:18N 34°58' E 136°39'0 0.2
2018-Feb-13 03:00N 34°58' E 136°39'4 7.4
2018-Feb-13 02:30N 34°58' E 136°43'510.8
2018-Feb-13 02:01N 35°01' E 136°49'3 6.2
2018-Feb-13 01:30N 35°03' E 136°52'0 0.0
2018-Feb-13 00:59N 35°03' E 136°52'0 0.0
2018-Feb-13 00:29N 35°03' E 136°52'0 0.0
2018-Feb-12 23:59N 35°03' E 136°52'1 1.5
2018-Feb-12 23:31N 35°02' E 136°51'611.5
2018-Feb-12 22:59N 34°57' E 136°48'511.4
2018-Feb-12 22:30N 34°52' E 136°47'611.1
2018-Feb-12 22:00N 34°46' E 136°48'510.7
2018-Feb-12 21:30N 34°42' E 136°51'17 9.7
2018-Feb-12 19:46N 34°34' E 137°09'310.7
2018-Feb-12 19:30N 34°34' E 137°13'4910.1
2018-Feb-12 14:41N 34°33' E 138°12'2 9.0
2018-Feb-12 14:28N 34°33' E 138°14'7 9.3
2018-Feb-12 13:42N 34°33' E 138°23'4 9.1
2018-Feb-12 13:13N 34°33' E 138°28'2 8.4
2018-Feb-12 12:59N 34°33' E 138°31'4 8.3
2018-Feb-12 12:29N 34°33' E 138°36'5 7.8
2018-Feb-12 11:50N 34°34' E 138°42'3 7.6
2018-Feb-12 11:25N 34°34' E 138°46'3 7.0
2018-Feb-12 11:00N 34°35' E 138°49'3 6.5
2018-Feb-12 10:28N 34°35' E 138°53'3 7.2
2018-Feb-12 09:59N 34°36' E 138°57'5 8.6
2018-Feb-12 09:26N 34°40' E 139°02'4 9.1
2018-Feb-12 09:01N 34°43' E 139°04'5 9.9
2018-Feb-12 08:30N 34°47' E 139°08'6 9.7
2018-Feb-12 07:53N 34°52' E 139°11'4 9.6
2018-Feb-12 07:30N 34°55' E 139°15'5 9.6
2018-Feb-12 06:57N 34°57' E 139°20'4 9.4
2018-Feb-12 06:30N 34°59' E 139°25'5 9.8
2018-Feb-12 05:58N 35°01' E 139°31'4 9.9
2018-Feb-12 05:30N 35°04' E 139°35'5 9.5
2018-Feb-12 04:59N 35°06' E 139°41'5 9.2
2018-Feb-12 04:29N 35°10' E 139°44'510.6
2018-Feb-12 04:00N 35°15' E 139°46'611.8
2018-Feb-12 03:31N 35°20' E 139°43'510.4
2018-Feb-12 03:00N 35°25' E 139°43'510.7
2018-Feb-12 02:30N 35°28' E 139°48'3 5.9
2018-Feb-12 02:00N 35°30' E 139°51'0 0.0
2018-Feb-12 01:30N 35°30' E 139°51'0 0.0
2018-Feb-12 00:57N 35°30' E 139°51'0 0.0
2018-Feb-12 00:30N 35°30' E 139°51'0 0.0
2018-Feb-12 00:00N 35°30' E 139°51'0 0.0
2018-Feb-11 23:30N 35°30' E 139°51'0 0.0
2018-Feb-11 22:54N 35°30' E 139°51'0 0.0
2018-Feb-11 22:30N 35°30' E 139°51'0 0.0
2018-Feb-11 21:57N 35°30' E 139°51'0 0.1
2018-Feb-11 21:30N 35°30' E 139°51'0 0.2
2018-Feb-11 21:00N 35°30' E 139°51'0 0.1
2018-Feb-11 20:27N 35°30' E 139°51'0 0.0
2018-Feb-11 20:00N 35°30' E 139°51'0 0.0
2018-Feb-11 19:30N 35°30' E 139°51'0 0.0
2018-Feb-11 18:54N 35°30' E 139°51'0 0.0
2018-Feb-11 18:30N 35°30' E 139°51'0 0.0
2018-Feb-11 17:57N 35°30' E 139°51'0 0.1
2018-Feb-11 17:27N 35°30' E 139°51'0 0.0
2018-Feb-11 16:18N 35°30' E 139°51'0 0.1
2018-Feb-11 15:54N 35°30' E 139°51'0 0.1
2018-Feb-11 15:18N 35°30' E 139°51'0 0.2
2018-Feb-11 15:00N 35°30' E 139°51'0 0.0
2018-Feb-11 14:24N 35°30' E 139°51'0 0.0
2018-Feb-11 13:57N 35°30' E 139°51'0 0.0
2018-Feb-11 13:24N 35°30' E 139°51'0 0.0
2018-Feb-11 13:00N 35°30' E 139°51'0 0.0
2018-Feb-11 12:30N 35°30' E 139°51'0 0.0
2018-Feb-11 12:00N 35°30' E 139°51'  
Track history (hours):
 
Tides and Currents Weather Stations Pressure Air Temp Water Temp Dewpoint Dewpoint Depression Visibility Wind Speed Wind Dir Waves Ship Positions

Toryo Maru

Last reported at 2018-Feb-21 11:34 UTC. Time now 2018-Feb-21 19:21 UTC.
Position N 34°25' E 134°23'.

Length 69 m; draft 5 m.

Type: Tanker. MMSI: 431697000.

Date/timePositionNaut miles runAvg speedWind from/ knotsBaromVisibWave heightAir tempDewpointWater temp
2018-Feb-21 11:34N 34°25' E 134°23'312.3
2018-Feb-21 11:18N 34°27' E 134°27'412.4
2018-Feb-21 11:00N 34°28' E 134°31'612.2
2018-Feb-21 10:30N 34°30' E 134°38'611.9
2018-Feb-21 10:00N 34°32' E 134°44'611.2
2018-Feb-21 09:31N 34°34' E 134°51'5 9.8
2018-Feb-21 09:01N 34°36' E 134°56'4 8.8
2018-Feb-21 08:31N 34°37' E 135°01'4 8.4
2018-Feb-21 08:01N 34°34' E 135°05'611.1
2018-Feb-21 07:30N 34°29' E 135°04'611.4
2018-Feb-21 07:00N 34°23' E 135°02'611.2
2018-Feb-21 06:31N 34°18' E 134°60'510.3
2018-Feb-21 06:00N 34°13' E 135°01'510.5
2018-Feb-21 05:30N 34°09' E 135°05'3 0.5
2018-Feb-20 23:55N 34°07' E 135°07'1 3.5
2018-Feb-20 23:30N 34°08' E 135°07'2 3.4
2018-Feb-20 22:59N 34°10' E 135°09'0 0.1
2018-Feb-20 22:29N 34°10' E 135°09'0 0.0
2018-Feb-20 21:59N 34°10' E 135°09'0 0.0
2018-Feb-20 21:29N 34°10' E 135°09'0 0.0
2018-Feb-20 20:56N 34°10' E 135°09'0 0.0
2018-Feb-20 20:29N 34°10' E 135°09'0 0.0
2018-Feb-20 19:59N 34°10' E 135°09'0 0.0
2018-Feb-20 19:29N 34°10' E 135°09'0 0.0
2018-Feb-20 18:59N 34°10' E 135°09'0 0.0
2018-Feb-20 18:29N 34°10' E 135°09'0 0.0
2018-Feb-20 17:56N 34°10' E 135°09'0 0.0
2018-Feb-20 17:29N 34°10' E 135°09'0 0.0
2018-Feb-20 16:59N 34°10' E 135°09'0 0.0
2018-Feb-20 16:29N 34°10' E 135°09'0 0.0
2018-Feb-20 15:59N 34°10' E 135°09'0 0.0
2018-Feb-20 15:29N 34°10' E 135°09'0 0.0
2018-Feb-20 14:59N 34°10' E 135°09'0 0.0
2018-Feb-20 14:29N 34°10' E 135°09'0 0.0
2018-Feb-20 13:59N 34°10' E 135°09'0 0.0
2018-Feb-20 13:29N 34°10' E 135°09'0 0.0
2018-Feb-20 12:59N 34°10' E 135°09'0 0.0
2018-Feb-20 12:29N 34°10' E 135°09'0 0.0
2018-Feb-20 11:59N 34°10' E 135°09'0 0.0
2018-Feb-20 11:29N 34°10' E 135°09'0 0.1
2018-Feb-20 10:59N 34°10' E 135°09'0 0.1
2018-Feb-20 10:29N 34°10' E 135°09'0 0.1
2018-Feb-20 09:59N 34°10' E 135°09'0 0.0
2018-Feb-20 09:29N 34°10' E 135°09'0 0.0
2018-Feb-20 08:59N 34°10' E 135°09'0 0.0
2018-Feb-20 08:29N 34°10' E 135°09'0 0.0
2018-Feb-20 07:59N 34°10' E 135°09'0 0.0
2018-Feb-20 07:29N 34°10' E 135°09'1 2.5
2018-Feb-20 07:00N 34°09' E 135°07'612.4
2018-Feb-20 06:30N 34°09' E 134°60'612.2
2018-Feb-20 06:00N 34°08' E 134°53'612.2
2018-Feb-20 05:30N 34°09' E 134°45'713.6
2018-Feb-20 05:00N 34°14' E 134°39'713.1
2018-Feb-20 04:30N 34°17' E 134°33'612.7
2018-Feb-20 04:01N 34°20' E 134°25'912.5
2018-Feb-20 03:17N 34°23' E 134°15'311.9
2018-Feb-20 03:00N 34°24' E 134°12'  
2018-Feb-16 00:30N 34°25' E 134°13'713.6
2018-Feb-16 00:00N 34°23' E 134°21'713.0
2018-Feb-15 23:29N 34°19' E 134°28'613.5
2018-Feb-15 23:00N 34°17' E 134°36'713.9
2018-Feb-15 22:29N 34°12' E 134°41'613.3
2018-Feb-15 22:00N 34°07' E 134°46'712.8
2018-Feb-15 21:30N 34°01' E 134°51'612.9
2018-Feb-15 21:00N 33°56' E 134°55'613.0
2018-Feb-15 20:30N 33°51' E 135°00'105 8.9
2018-Feb-15 08:42N 34°37' E 136°54'212.5
2018-Feb-15 08:30N 34°39' E 136°52'712.4
2018-Feb-15 07:55N 34°45' E 136°47'512.4
2018-Feb-15 07:30N 34°50' E 136°46'612.5
2018-Feb-15 07:01N 34°56' E 136°46'612.3
2018-Feb-15 06:30N 35°01' E 136°50'2 4.2
2018-Feb-15 05:58N 35°03' E 136°52'0 0.0
2018-Feb-15 05:28N 35°03' E 136°52'0 0.0
2018-Feb-15 04:58N 35°03' E 136°52'1 3.1
2018-Feb-15 04:30N 35°02' E 136°51'510.1
2018-Feb-15 04:00N 34°59' E 136°46'4 8.9
2018-Feb-15 03:30N 34°58' E 136°41'2 3.1
2018-Feb-15 02:56N 34°58' E 136°39'0 0.1
2018-Feb-15 02:20N 34°58' E 136°39'0 0.0
2018-Feb-15 01:56N 34°58' E 136°39'0 0.1
2018-Feb-15 01:20N 34°58' E 136°39'0 0.0
2018-Feb-15 00:56N 34°58' E 136°39'0 0.0
2018-Feb-15 00:26N 34°58' E 136°39'0 0.1
2018-Feb-14 23:56N 34°58' E 136°39'0 0.1
2018-Feb-14 23:26N 34°58' E 136°39'0 0.1
2018-Feb-14 22:59N 34°58' E 136°39'2 4.0
2018-Feb-14 22:30N 34°58' E 136°41'0 0.0
2018-Feb-14 21:59N 34°58' E 136°41'0 0.1
2018-Feb-14 21:30N 34°58' E 136°41'5 9.3
2018-Feb-14 21:00N 34°59' E 136°47'510.8
2018-Feb-14 20:30N 35°03' E 136°51'3 5.3
2018-Feb-14 20:00N 35°05' E 136°52'0 0.0
2018-Feb-14 19:30N 35°05' E 136°52'0 0.0
2018-Feb-14 19:01N 35°05' E 136°52'0 0.0
2018-Feb-14 18:31N 35°05' E 136°52'0 0.0
2018-Feb-14 18:01N 35°05' E 136°52'0 0.0
2018-Feb-14 17:25N 35°05' E 136°52'0 0.0
2018-Feb-14 16:58N 35°05' E 136°52'0 0.0
2018-Feb-14 16:28N 35°05' E 136°52'0 0.0
2018-Feb-14 16:01N 35°05' E 136°52'0 0.0
2018-Feb-14 15:30N 35°05' E 136°52'0 0.0
2018-Feb-14 15:00N 35°05' E 136°52'0 0.0
2018-Feb-14 14:31N 35°05' E 136°52'0 0.0
2018-Feb-14 14:00N 35°05' E 136°52'0 0.0
2018-Feb-14 13:30N 35°05' E 136°52'0 0.0
2018-Feb-14 13:01N 35°05' E 136°52'0 0.0
2018-Feb-14 12:30N 35°05' E 136°52'0 0.0
2018-Feb-14 12:01N 35°05' E 136°52'0 0.0
2018-Feb-14 11:31N 35°05' E 136°52'0 0.0
2018-Feb-14 11:01N 35°05' E 136°52'0 0.0
2018-Feb-14 10:30N 35°05' E 136°52'0 0.0
2018-Feb-14 10:00N 35°05' E 136°52'0 0.0
2018-Feb-14 09:30N 35°05' E 136°52'0 0.0
2018-Feb-14 08:57N 35°05' E 136°52'0 0.0
2018-Feb-14 08:31N 35°05' E 136°52'0 0.0
2018-Feb-14 08:00N 35°05' E 136°52'0 0.0
2018-Feb-14 07:31N 35°05' E 136°52'0 0.0
2018-Feb-14 07:00N 35°05' E 136°52'0 0.0
2018-Feb-14 06:30N 35°05' E 136°52'0 0.0
2018-Feb-14 06:00N 35°05' E 136°52'0 0.0
2018-Feb-14 05:31N 35°05' E 136°52'0 0.0
2018-Feb-14 05:00N 35°05' E 136°52'1 1.7
2018-Feb-14 04:31N 35°05' E 136°53'0 0.2
2018-Feb-14 03:53N 35°05' E 136°53'0 0.0
2018-Feb-14 03:17N 35°05' E 136°53'0 0.0
2018-Feb-14 02:59N 35°05' E 136°53'0 0.0
2018-Feb-14 02:23N 35°05' E 136°53'0 0.0
2018-Feb-14 01:59N 35°05' E 136°53'0 0.0
2018-Feb-14 01:29N 35°05' E 136°53'0 0.0
2018-Feb-14 00:53N 35°05' E 136°53'0 0.0
2018-Feb-14 00:29N 35°05' E 136°53'0 0.0
2018-Feb-13 23:59N 35°05' E 136°53'0 0.0
2018-Feb-13 23:29N 35°05' E 136°53'0 0.0
2018-Feb-13 23:00N 35°05' E 136°53'3 5.3
2018-Feb-13 22:30N 35°03' E 136°51'510.6
2018-Feb-13 22:00N 34°58' E 136°48'3 5.2
2018-Feb-13 21:30N 34°58' E 136°45'0 0.0
2018-Feb-13 20:58N 34°58' E 136°45'0 0.0
2018-Feb-13 20:28N 34°58' E 136°45'0 0.0
2018-Feb-13 19:58N 34°58' E 136°45'0 0.0
2018-Feb-13 19:28N 34°58' E 136°45'0 0.0
2018-Feb-13 18:58N 34°58' E 136°45'0 0.0
2018-Feb-13 18:28N 34°58' E 136°45'0 0.0
2018-Feb-13 17:58N 34°58' E 136°45'0 0.0
2018-Feb-13 17:28N 34°58' E 136°45'0 0.1
2018-Feb-13 16:58N 34°58' E 136°45'0 0.1
2018-Feb-13 16:25N 34°58' E 136°45'0 0.1
2018-Feb-13 15:58N 34°58' E 136°45'0 0.1
2018-Feb-13 15:25N 34°58' E 136°45'0 0.0
2018-Feb-13 14:58N 34°58' E 136°45'0 0.0
2018-Feb-13 14:28N 34°58' E 136°45'0 0.0
2018-Feb-13 13:58N 34°58' E 136°45'0 0.1
2018-Feb-13 13:28N 34°58' E 136°45'0 0.0
2018-Feb-13 12:58N 34°58' E 136°45'0 0.0
2018-Feb-13 12:28N 34°58' E 136°45'0 0.0
2018-Feb-13 11:58N 34°58' E 136°45'0 0.0
2018-Feb-13 11:28N 34°58' E 136°45'0 0.0
2018-Feb-13 10:58N 34°58' E 136°45'0 0.1
2018-Feb-13 10:28N 34°58' E 136°45'0 0.1
2018-Feb-13 09:58N 34°58' E 136°45'0 0.0
2018-Feb-13 09:28N 34°58' E 136°45'0 0.0
2018-Feb-13 08:58N 34°58' E 136°45'2 3.8
2018-Feb-13 08:30N 34°58' E 136°43'3 6.2
2018-Feb-13 08:00N 34°58' E 136°39'0 0.0
2018-Feb-13 04:48N 34°58' E 136°39'0 0.0
2018-Feb-13 04:24N 34°58' E 136°39'0 0.1
2018-Feb-13 04:00N 34°58' E 136°39'0 0.0
2018-Feb-13 03:18N 34°58' E 136°39'0 0.2
2018-Feb-13 03:00N 34°58' E 136°39'4 7.4
2018-Feb-13 02:30N 34°58' E 136°43'510.8
2018-Feb-13 02:01N 35°01' E 136°49'3 6.2
2018-Feb-13 01:30N 35°03' E 136°52'0 0.0
2018-Feb-13 00:59N 35°03' E 136°52'0 0.0
2018-Feb-13 00:29N 35°03' E 136°52'0 0.0
2018-Feb-12 23:59N 35°03' E 136°52'1 1.5
2018-Feb-12 23:31N 35°02' E 136°51'611.5
2018-Feb-12 22:59N 34°57' E 136°48'511.4
2018-Feb-12 22:30N 34°52' E 136°47'611.1
2018-Feb-12 22:00N 34°46' E 136°48'510.7
2018-Feb-12 21:30N 34°42' E 136°51'17 9.7
2018-Feb-12 19:46N 34°34' E 137°09'310.7
2018-Feb-12 19:30N 34°34' E 137°13'4910.1
2018-Feb-12 14:41N 34°33' E 138°12'2 9.0
2018-Feb-12 14:28N 34°33' E 138°14'7 9.3
2018-Feb-12 13:42N 34°33' E 138°23'4 9.1
2018-Feb-12 13:13N 34°33' E 138°28'2 8.4
2018-Feb-12 12:59N 34°33' E 138°31'4 8.3
2018-Feb-12 12:29N 34°33' E 138°36'5 7.8
2018-Feb-12 11:50N 34°34' E 138°42'3 7.6
2018-Feb-12 11:25N 34°34' E 138°46'3 7.0
2018-Feb-12 11:00N 34°35' E 138°49'3 6.5
2018-Feb-12 10:28N 34°35' E 138°53'3 7.2
2018-Feb-12 09:59N 34°36' E 138°57'5 8.6
2018-Feb-12 09:26N 34°40' E 139°02'4 9.1
2018-Feb-12 09:01N 34°43' E 139°04'5 9.9
2018-Feb-12 08:30N 34°47' E 139°08'6 9.7
2018-Feb-12 07:53N 34°52' E 139°11'4 9.6
2018-Feb-12 07:30N 34°55' E 139°15'5 9.6
2018-Feb-12 06:57N 34°57' E 139°20'4 9.4
2018-Feb-12 06:30N 34°59' E 139°25'5 9.8
2018-Feb-12 05:58N 35°01' E 139°31'4 9.9
2018-Feb-12 05:30N 35°04' E 139°35'5 9.5
2018-Feb-12 04:59N 35°06' E 139°41'5 9.2
2018-Feb-12 04:29N 35°10' E 139°44'510.6
2018-Feb-12 04:00N 35°15' E 139°46'611.8
2018-Feb-12 03:31N 35°20' E 139°43'510.4
2018-Feb-12 03:00N 35°25' E 139°43'510.7
2018-Feb-12 02:30N 35°28' E 139°48'3 5.9
2018-Feb-12 02:00N 35°30' E 139°51'0 0.0
2018-Feb-12 01:30N 35°30' E 139°51'0 0.0
2018-Feb-12 00:57N 35°30' E 139°51'0 0.0
2018-Feb-12 00:30N 35°30' E 139°51'0 0.0
2018-Feb-12 00:00N 35°30' E 139°51'0 0.0
2018-Feb-11 23:30N 35°30' E 139°51'0 0.0
2018-Feb-11 22:54N 35°30' E 139°51'0 0.0
2018-Feb-11 22:30N 35°30' E 139°51'0 0.0
2018-Feb-11 21:57N 35°30' E 139°51'0 0.1
2018-Feb-11 21:30N 35°30' E 139°51'0 0.2
2018-Feb-11 21:00N 35°30' E 139°51'0 0.1
2018-Feb-11 20:27N 35°30' E 139°51'0 0.0
2018-Feb-11 20:00N 35°30' E 139°51'0 0.0
2018-Feb-11 19:30N 35°30' E 139°51'0 0.0
2018-Feb-11 18:54N 35°30' E 139°51'0 0.0
2018-Feb-11 18:30N 35°30' E 139°51'0 0.0
2018-Feb-11 17:57N 35°30' E 139°51'0 0.1
2018-Feb-11 17:27N 35°30' E 139°51'0 0.0
2018-Feb-11 16:18N 35°30' E 139°51'0 0.1
2018-Feb-11 15:54N 35°30' E 139°51'0 0.1
2018-Feb-11 15:18N 35°30' E 139°51'0 0.2
2018-Feb-11 15:00N 35°30' E 139°51'0 0.0
2018-Feb-11 14:24N 35°30' E 139°51'0 0.0
2018-Feb-11 13:57N 35°30' E 139°51'0 0.0
2018-Feb-11 13:24N 35°30' E 139°51'0 0.0
2018-Feb-11 13:00N 35°30' E 139°51'0 0.0
2018-Feb-11 12:30N 35°30' E 139°51'0 0.0
2018-Feb-11 12:00N 35°30' E 139°51'  

Dump ship's entire track history